sensor_id;sensor_type;location;lat;lon;timestamp;pressure;altitude;pressure_sealevel;temperature
63588;BMP280;49966;46.896;18.004;2023-07-02T00:00:27;99517.94;;;21.44
63588;BMP280;49966;46.896;18.004;2023-07-02T00:03:06;99521.41;;;21.45
63588;BMP280;49966;46.896;18.004;2023-07-02T00:05:42;99532.47;;;21.47
63588;BMP280;49966;46.896;18.004;2023-07-02T00:08:10;99527.09;;;21.47
63588;BMP280;49966;46.896;18.004;2023-07-02T00:10:40;99519.13;;;21.43
63588;BMP280;49966;46.896;18.004;2023-07-02T00:13:08;99519.28;;;21.40
63588;BMP280;49966;46.896;18.004;2023-07-02T00:15:36;99532.75;;;21.40
63588;BMP280;49966;46.896;18.004;2023-07-02T00:18:04;99529.94;;;21.43
63588;BMP280;49966;46.896;18.004;2023-07-02T00:20:33;99534.91;;;21.45
63588;BMP280;49966;46.896;18.004;2023-07-02T00:23:04;99529.38;;;21.48
63588;BMP280;49966;46.896;18.004;2023-07-02T00:25:34;99535.97;;;21.47
63588;BMP280;49966;46.896;18.004;2023-07-02T00:28:04;99522.03;;;21.49
63588;BMP280;49966;46.896;18.004;2023-07-02T00:30:32;99515.00;;;21.51
63588;BMP280;49966;46.896;18.004;2023-07-02T00:33:00;99513.81;;;21.52
63588;BMP280;49966;46.896;18.004;2023-07-02T00:35:29;99512.16;;;21.55
63588;BMP280;49966;46.896;18.004;2023-07-02T00:37:57;99517.56;;;21.55
63588;BMP280;49966;46.896;18.004;2023-07-02T00:40:26;99523.38;;;21.53
63588;BMP280;49966;46.896;18.004;2023-07-02T00:42:55;99522.19;;;21.54
63588;BMP280;49966;46.896;18.004;2023-07-02T00:45:25;99517.56;;;21.55
63588;BMP280;49966;46.896;18.004;2023-07-02T00:47:54;99520.56;;;21.57
63588;BMP280;49966;46.896;18.004;2023-07-02T00:50:23;99528.97;;;21.59
63588;BMP280;49966;46.896;18.004;2023-07-02T00:52:53;99529.59;;;21.63
63588;BMP280;49966;46.896;18.004;2023-07-02T00:55:22;99516.72;;;21.67
63588;BMP280;49966;46.896;18.004;2023-07-02T00:57:51;99527.09;;;21.69
63588;BMP280;49966;46.896;18.004;2023-07-02T01:00:19;99531.25;;;21.70
63588;BMP280;49966;46.896;18.004;2023-07-02T01:02:54;99529.66;;;21.72
63588;BMP280;49966;46.896;18.004;2023-07-02T01:05:26;99528.16;;;21.71
63588;BMP280;49966;46.896;18.004;2023-07-02T01:08:02;99520.22;;;21.77
63588;BMP280;49966;46.896;18.004;2023-07-02T01:10:31;99520.41;;;21.82
63588;BMP280;49966;46.896;18.004;2023-07-02T01:13:05;99532.91;;;21.89
63588;BMP280;49966;46.896;18.004;2023-07-02T01:15:34;99530.19;;;21.89
63588;BMP280;49966;46.896;18.004;2023-07-02T01:18:05;99530.25;;;22.07
63588;BMP280;49966;46.896;18.004;2023-07-02T01:20:35;99529.66;;;22.03
63588;BMP280;49966;46.896;18.004;2023-07-02T01:23:04;99533.53;;;22.02
63588;BMP280;49966;46.896;18.004;2023-07-02T01:25:33;99528.63;;;22.01
63588;BMP280;49966;46.896;18.004;2023-07-02T01:28:03;99531.88;;;21.96
63588;BMP280;49966;46.896;18.004;2023-07-02T01:30:31;99540.72;;;21.96
63588;BMP280;49966;46.896;18.004;2023-07-02T01:33:00;99535.63;;;21.98
63588;BMP280;49966;46.896;18.004;2023-07-02T01:35:28;99538.66;;;22.00
63588;BMP280;49966;46.896;18.004;2023-07-02T01:37:58;99534.44;;;21.99
63588;BMP280;49966;46.896;18.004;2023-07-02T01:40:26;99536.06;;;21.97
63588;BMP280;49966;46.896;18.004;2023-07-02T01:42:54;99545.03;;;21.94
63588;BMP280;49966;46.896;18.004;2023-07-02T01:45:22;99545.03;;;21.94
63588;BMP280;49966;46.896;18.004;2023-07-02T01:47:51;99539.34;;;21.92
63588;BMP280;49966;46.896;18.004;2023-07-02T01:50:19;99544.56;;;21.86
63588;BMP280;49966;46.896;18.004;2023-07-02T01:52:48;99553.56;;;21.83
63588;BMP280;49966;46.896;18.004;2023-07-02T01:55:17;99552.91;;;21.79
63588;BMP280;49966;46.896;18.004;2023-07-02T01:57:45;99555.88;;;21.72
63588;BMP280;49966;46.896;18.004;2023-07-02T02:03:10;99557.47;;;21.60
63588;BMP280;49966;46.896;18.004;2023-07-02T02:05:39;99558.53;;;21.63
63588;BMP280;49966;46.896;18.004;2023-07-02T02:08:08;99539.09;;;21.68
63588;BMP280;49966;46.896;18.004;2023-07-02T02:13:15;99560.91;;;21.82
63588;BMP280;49966;46.896;18.004;2023-07-02T02:15:43;99556.84;;;21.87
63588;BMP280;49966;46.896;18.004;2023-07-02T02:18:12;99560.34;;;21.87
63588;BMP280;49966;46.896;18.004;2023-07-02T02:20:40;99558.19;;;21.82
63588;BMP280;49966;46.896;18.004;2023-07-02T02:23:08;99556.44;;;21.88
63588;BMP280;49966;46.896;18.004;2023-07-02T02:25:37;99547.91;;;21.90
63588;BMP280;49966;46.896;18.004;2023-07-02T02:28:05;99555.13;;;21.93
63588;BMP280;49966;46.896;18.004;2023-07-02T02:30:35;99545.94;;;21.91
63588;BMP280;49966;46.896;18.004;2023-07-02T02:33:03;99559.00;;;21.92
63588;BMP280;49966;46.896;18.004;2023-07-02T02:35:31;99547.91;;;21.90
63588;BMP280;49966;46.896;18.004;2023-07-02T02:38:02;99567.25;;;21.88
63588;BMP280;49966;46.896;18.004;2023-07-02T02:40:31;99575.63;;;21.91
63588;BMP280;49966;46.896;18.004;2023-07-02T02:42:59;99573.28;;;21.93
63588;BMP280;49966;46.896;18.004;2023-07-02T02:45:28;99576.09;;;21.89
63588;BMP280;49966;46.896;18.004;2023-07-02T02:47:58;99574.59;;;21.88
63588;BMP280;49966;46.896;18.004;2023-07-02T02:50:26;99566.91;;;21.86
63588;BMP280;49966;46.896;18.004;2023-07-02T02:52:54;99568.09;;;21.85
63588;BMP280;49966;46.896;18.004;2023-07-02T02:55:22;99568.56;;;21.84
63588;BMP280;49966;46.896;18.004;2023-07-02T02:57:50;99570.25;;;21.91
63588;BMP280;49966;46.896;18.004;2023-07-02T03:00:19;99562.13;;;21.91
63588;BMP280;49966;46.896;18.004;2023-07-02T03:02:47;99562.13;;;21.91
63588;BMP280;49966;46.896;18.004;2023-07-02T03:05:16;99564.22;;;21.86
63588;BMP280;49966;46.896;18.004;2023-07-02T03:07:44;99571.13;;;21.87
63588;BMP280;49966;46.896;18.004;2023-07-02T03:10:13;99567.25;;;21.88
63588;BMP280;49966;46.896;18.004;2023-07-02T03:12:41;99564.09;;;21.90
63588;BMP280;49966;46.896;18.004;2023-07-02T03:15:10;99560.53;;;21.93
63588;BMP280;49966;46.896;18.004;2023-07-02T03:17:38;99568.63;;;21.93
63588;BMP280;49966;46.896;18.004;2023-07-02T03:20:07;99568.91;;;21.95
63588;BMP280;49966;46.896;18.004;2023-07-02T03:22:37;99575.38;;;21.98
63588;BMP280;49966;46.896;18.004;2023-07-02T03:25:06;99564.75;;;22.03
63588;BMP280;49966;46.896;18.004;2023-07-02T03:27:34;99562.06;;;22.03
63588;BMP280;49966;46.896;18.004;2023-07-02T03:30:04;99569.72;;;22.05
63588;BMP280;49966;46.896;18.004;2023-07-02T03:32:32;99559.66;;;22.05
63588;BMP280;49966;46.896;18.004;2023-07-02T03:35:00;99572.84;;;22.03
63588;BMP280;49966;46.896;18.004;2023-07-02T03:37:29;99571.22;;;22.06
63588;BMP280;49966;46.896;18.004;2023-07-02T03:39:59;99575.09;;;22.05
63588;BMP280;49966;46.896;18.004;2023-07-02T03:42:27;99580.22;;;22.03
63588;BMP280;49966;46.896;18.004;2023-07-02T03:44:56;99584.50;;;21.91
63588;BMP280;49966;46.896;18.004;2023-07-02T03:47:24;99588.38;;;21.90
63588;BMP280;49966;46.896;18.004;2023-07-02T03:49:52;99597.78;;;21.85
63588;BMP280;49966;46.896;18.004;2023-07-02T03:52:21;99602.88;;;21.83
63588;BMP280;49966;46.896;18.004;2023-07-02T03:54:49;99599.13;;;21.81
63588;BMP280;49966;46.896;18.004;2023-07-02T03:57:18;99596.84;;;21.79
63588;BMP280;49966;46.896;18.004;2023-07-02T03:59:46;99600.44;;;21.76
63588;BMP280;49966;46.896;18.004;2023-07-02T04:02:15;99598.38;;;21.80
63588;BMP280;49966;46.896;18.004;2023-07-02T04:04:43;99615.13;;;21.75
63588;BMP280;49966;46.896;18.004;2023-07-02T04:07:12;99619.75;;;21.75
63588;BMP280;49966;46.896;18.004;2023-07-02T04:09:40;99615.38;;;21.68
63588;BMP280;49966;46.896;18.004;2023-07-02T04:12:09;99604.84;;;21.83
63588;BMP280;49966;46.896;18.004;2023-07-02T04:14:39;99611.88;;;21.80
63588;BMP280;49966;46.896;18.004;2023-07-02T04:17:07;99618.44;;;21.79
63588;BMP280;49966;46.896;18.004;2023-07-02T04:19:35;99614.09;;;21.73
63588;BMP280;49966;46.896;18.004;2023-07-02T04:22:04;99610.28;;;21.70
63588;BMP280;49966;46.896;18.004;2023-07-02T04:24:32;99619.25;;;21.67
63588;BMP280;49966;46.896;18.004;2023-07-02T04:27:00;99615.81;;;21.67
63588;BMP280;49966;46.896;18.004;2023-07-02T04:29:50;99626.19;;;21.68
63588;BMP280;49966;46.896;18.004;2023-07-02T04:32:18;99627.78;;;21.66
63588;BMP280;49966;46.896;18.004;2023-07-02T04:34:47;99621.44;;;21.59
63588;BMP280;49966;46.896;18.004;2023-07-02T04:37:15;99624.59;;;21.58
63588;BMP280;49966;46.896;18.004;2023-07-02T04:39:43;99627.63;;;21.60
63588;BMP280;49966;46.896;18.004;2023-07-02T04:42:12;99623.53;;;21.55
63588;BMP280;49966;46.896;18.004;2023-07-02T04:44:42;99628.78;;;21.59
63588;BMP280;49966;46.896;18.004;2023-07-02T04:47:15;99637.63;;;21.59
63588;BMP280;49966;46.896;18.004;2023-07-02T04:49:44;99635.25;;;21.61
63588;BMP280;49966;46.896;18.004;2023-07-02T04:52:12;99636.63;;;21.66
63588;BMP280;49966;46.896;18.004;2023-07-02T04:54:40;99646.75;;;21.75
63588;BMP280;49966;46.896;18.004;2023-07-02T04:57:09;99641.34;;;21.75
63588;BMP280;49966;46.896;18.004;2023-07-02T04:59:37;99636.34;;;21.64
63588;BMP280;49966;46.896;18.004;2023-07-02T05:02:05;99633.44;;;21.58
63588;BMP280;49966;46.896;18.004;2023-07-02T05:04:35;99637.03;;;21.55
63588;BMP280;49966;46.896;18.004;2023-07-02T05:07:04;99648.91;;;21.45
63588;BMP280;49966;46.896;18.004;2023-07-02T05:09:32;99650.88;;;21.45
63588;BMP280;49966;46.896;18.004;2023-07-02T05:12:00;99647.41;;;21.44
63588;BMP280;49966;46.896;18.004;2023-07-02T05:14:29;99644.50;;;21.39
63588;BMP280;49966;46.896;18.004;2023-07-02T05:16:57;99650.03;;;21.35
63588;BMP280;49966;46.896;18.004;2023-07-02T05:19:26;99652.09;;;21.31
63588;BMP280;49966;46.896;18.004;2023-07-02T05:21:55;99655.09;;;21.33
63588;BMP280;49966;46.896;18.004;2023-07-02T05:24:24;99654.75;;;21.44
63588;BMP280;49966;46.896;18.004;2023-07-02T05:26:52;99657.84;;;21.55
63588;BMP280;49966;46.896;18.004;2023-07-02T05:29:21;99664.63;;;21.59
63588;BMP280;49966;46.896;18.004;2023-07-02T05:31:49;99663.56;;;21.57
63588;BMP280;49966;46.896;18.004;2023-07-02T05:34:17;99663.13;;;21.58
63588;BMP280;49966;46.896;18.004;2023-07-02T05:36:45;99670.31;;;21.61
63588;BMP280;49966;46.896;18.004;2023-07-02T05:39:15;99655.91;;;21.77
63588;BMP280;49966;46.896;18.004;2023-07-02T05:41:43;99664.41;;;21.88
63588;BMP280;49966;46.896;18.004;2023-07-02T05:44:11;99676.34;;;22.00
63588;BMP280;49966;46.896;18.004;2023-07-02T05:46:40;99666.31;;;22.10
63588;BMP280;49966;46.896;18.004;2023-07-02T05:49:08;99672.69;;;22.16
63588;BMP280;49966;46.896;18.004;2023-07-02T05:51:36;99676.03;;;22.29
63588;BMP280;49966;46.896;18.004;2023-07-02T05:54:06;99674.31;;;22.44
63588;BMP280;49966;46.896;18.004;2023-07-02T05:56:36;99688.31;;;22.52
63588;BMP280;49966;46.896;18.004;2023-07-02T05:59:04;99676.97;;;22.66
63588;BMP280;49966;46.896;18.004;2023-07-02T06:01:32;99669.81;;;22.82
63588;BMP280;49966;46.896;18.004;2023-07-02T06:04:01;99666.78;;;22.80
63588;BMP280;49966;46.896;18.004;2023-07-02T06:06:29;99684.56;;;22.90
63588;BMP280;49966;46.896;18.004;2023-07-02T06:08:57;99669.53;;;22.98
63588;BMP280;49966;46.896;18.004;2023-07-02T06:11:25;99675.91;;;23.22
63588;BMP280;49966;46.896;18.004;2023-07-02T06:13:55;99662.22;;;23.44
63588;BMP280;49966;46.896;18.004;2023-07-02T06:16:24;99675.75;;;23.63
63588;BMP280;49966;46.896;18.004;2023-07-02T06:18:52;99672.28;;;23.71
63588;BMP280;49966;46.896;18.004;2023-07-02T06:21:21;99660.78;;;23.95
63588;BMP280;49966;46.896;18.004;2023-07-02T06:23:50;99679.56;;;24.17
63588;BMP280;49966;46.896;18.004;2023-07-02T06:26:18;99691.59;;;24.25
63588;BMP280;49966;46.896;18.004;2023-07-02T06:28:47;99685.25;;;24.28
63588;BMP280;49966;46.896;18.004;2023-07-02T06:31:18;99698.28;;;24.48
63588;BMP280;49966;46.896;18.004;2023-07-02T06:33:47;99706.50;;;24.62
63588;BMP280;49966;46.896;18.004;2023-07-02T06:36:15;99702.63;;;24.87
63588;BMP280;49966;46.896;18.004;2023-07-02T06:38:44;99686.19;;;25.06
63588;BMP280;49966;46.896;18.004;2023-07-02T06:41:12;99690.59;;;25.03
63588;BMP280;49966;46.896;18.004;2023-07-02T06:43:44;99702.63;;;25.79
63588;BMP280;49966;46.896;18.004;2023-07-02T06:46:13;99716.03;;;26.62
63588;BMP280;49966;46.896;18.004;2023-07-02T06:48:42;99714.66;;;26.93
63588;BMP280;49966;46.896;18.004;2023-07-02T06:51:11;99717.16;;;27.11
63588;BMP280;49966;46.896;18.004;2023-07-02T06:53:44;99719.34;;;27.33
63588;BMP280;49966;46.896;18.004;2023-07-02T06:56:13;99722.75;;;27.54
63588;BMP280;49966;46.896;18.004;2023-07-02T06:58:42;99712.88;;;27.82
63588;BMP280;49966;46.896;18.004;2023-07-02T07:01:10;99697.19;;;27.46
63588;BMP280;49966;46.896;18.004;2023-07-02T07:03:39;99703.75;;;27.34
63588;BMP280;49966;46.896;18.004;2023-07-02T07:06:08;99698.47;;;26.63
63588;BMP280;49966;46.896;18.004;2023-07-02T07:08:37;99715.03;;;26.45
63588;BMP280;49966;46.896;18.004;2023-07-02T07:11:06;99715.66;;;26.55
63588;BMP280;49966;46.896;18.004;2023-07-02T07:13:35;99712.13;;;26.49
63588;BMP280;49966;46.896;18.004;2023-07-02T07:20:46;99712.09;;;25.99
63588;BMP280;49966;46.896;18.004;2023-07-02T07:27:55;99714.66;;;26.37
63588;BMP280;49966;46.896;18.004;2023-07-02T07:30:54;99724.22;;;26.83
63588;BMP280;49966;46.896;18.004;2023-07-02T07:33:37;99732.13;;;26.46
63588;BMP280;49966;46.896;18.004;2023-07-02T07:36:05;99732.03;;;26.40
63588;BMP280;49966;46.896;18.004;2023-07-02T07:38:33;99741.78;;;26.32
63588;BMP280;49966;46.896;18.004;2023-07-02T07:41:02;99735.81;;;26.13
63588;BMP280;49966;46.896;18.004;2023-07-02T07:43:33;99737.13;;;26.03
63588;BMP280;49966;46.896;18.004;2023-07-02T07:46:02;99749.19;;;26.81
63588;BMP280;49966;46.896;18.004;2023-07-02T07:48:30;99748.91;;;27.20
63588;BMP280;49966;46.896;18.004;2023-07-02T07:50:59;99743.75;;;27.48
63588;BMP280;49966;46.896;18.004;2023-07-02T07:53:29;99757.59;;;27.70
63588;BMP280;49966;46.896;18.004;2023-07-02T07:55:58;99757.97;;;27.83
63588;BMP280;49966;46.896;18.004;2023-07-02T07:58:26;99745.78;;;28.05
63588;BMP280;49966;46.896;18.004;2023-07-02T08:00:56;99763.91;;;28.13
63588;BMP280;49966;46.896;18.004;2023-07-02T08:03:24;99769.31;;;28.39
63588;BMP280;49966;46.896;18.004;2023-07-02T08:05:53;99765.97;;;28.24
63588;BMP280;49966;46.896;18.004;2023-07-02T08:08:22;99750.38;;;27.93
63588;BMP280;49966;46.896;18.004;2023-07-02T08:10:51;99770.28;;;27.79
63588;BMP280;49966;46.896;18.004;2023-07-02T08:13:19;99771.03;;;27.53
63588;BMP280;49966;46.896;18.004;2023-07-02T08:15:47;99762.13;;;27.07
63588;BMP280;49966;46.896;18.004;2023-07-02T08:18:17;99769.66;;;26.97
63588;BMP280;49966;46.896;18.004;2023-07-02T08:20:45;99772.06;;;26.75
63588;BMP280;49966;46.896;18.004;2023-07-02T08:23:14;99774.47;;;27.28
63588;BMP280;49966;46.896;18.004;2023-07-02T08:25:42;99783.50;;;27.60
63588;BMP280;49966;46.896;18.004;2023-07-02T08:28:10;99788.59;;;28.04
63588;BMP280;49966;46.896;18.004;2023-07-02T08:30:38;99799.25;;;28.28
63588;BMP280;49966;46.896;18.004;2023-07-02T08:33:07;99801.44;;;28.56
63588;BMP280;49966;46.896;18.004;2023-07-02T08:35:37;99788.69;;;28.90
63588;BMP280;49966;46.896;18.004;2023-07-02T08:38:05;99786.34;;;28.71
63588;BMP280;49966;46.896;18.004;2023-07-02T08:40:35;99788.34;;;27.50
63588;BMP280;49966;46.896;18.004;2023-07-02T08:43:03;99787.44;;;26.78
63588;BMP280;49966;46.896;18.004;2023-07-02T08:45:31;99802.59;;;26.99
63588;BMP280;49966;46.896;18.004;2023-07-02T08:48:00;99813.69;;;27.16
63588;BMP280;49966;46.896;18.004;2023-07-02T08:50:28;99806.97;;;27.32
63588;BMP280;49966;46.896;18.004;2023-07-02T08:52:58;99812.88;;;27.30
63588;BMP280;49966;46.896;18.004;2023-07-02T08:55:27;99825.72;;;27.70
63588;BMP280;49966;46.896;18.004;2023-07-02T08:57:57;99821.94;;;27.62
63588;BMP280;49966;46.896;18.004;2023-07-02T09:00:28;99818.28;;;27.97
63588;BMP280;49966;46.896;18.004;2023-07-02T09:02:58;99831.56;;;27.83
63588;BMP280;49966;46.896;18.004;2023-07-02T09:05:26;99806.25;;;27.57
63588;BMP280;49966;46.896;18.004;2023-07-02T09:07:54;99830.44;;;28.27
63588;BMP280;49966;46.896;18.004;2023-07-02T09:10:28;99819.09;;;28.71
63588;BMP280;49966;46.896;18.004;2023-07-02T09:13:04;99813.97;;;28.10
63588;BMP280;49966;46.896;18.004;2023-07-02T09:15:36;99816.47;;;28.45
63588;BMP280;49966;46.896;18.004;2023-07-02T09:18:15;99815.28;;;28.52
63588;BMP280;49966;46.896;18.004;2023-07-02T09:20:43;99808.84;;;28.24
63588;BMP280;49966;46.896;18.004;2023-07-02T09:23:12;99830.94;;;28.26
63588;BMP280;49966;46.896;18.004;2023-07-02T09:25:41;99811.69;;;28.03
63588;BMP280;49966;46.896;18.004;2023-07-02T09:28:18;99818.88;;;27.54
63588;BMP280;49966;46.896;18.004;2023-07-02T09:30:50;99806.13;;;27.25
63588;BMP280;49966;46.896;18.004;2023-07-02T09:33:19;99820.91;;;27.19
63588;BMP280;49966;46.896;18.004;2023-07-02T09:35:47;99821.38;;;27.17
63588;BMP280;49966;46.896;18.004;2023-07-02T09:38:17;99816.72;;;27.03
63588;BMP280;49966;46.896;18.004;2023-07-02T09:40:49;99831.34;;;26.85
63588;BMP280;49966;46.896;18.004;2023-07-02T09:43:19;99842.75;;;27.04
63588;BMP280;49966;46.896;18.004;2023-07-02T09:45:48;99833.75;;;27.59
63588;BMP280;49966;46.896;18.004;2023-07-02T09:48:18;99834.31;;;27.43
63588;BMP280;49966;46.896;18.004;2023-07-02T09:50:54;99830.09;;;27.42
63588;BMP280;49966;46.896;18.004;2023-07-02T09:53:22;99820.25;;;27.70
63588;BMP280;49966;46.896;18.004;2023-07-02T09:55:52;99827.72;;;27.29
63588;BMP280;49966;46.896;18.004;2023-07-02T09:58:21;99841.81;;;27.27
63588;BMP280;49966;46.896;18.004;2023-07-02T10:00:50;99844.25;;;27.46
63588;BMP280;49966;46.896;18.004;2023-07-02T10:03:28;99849.31;;;27.33
63588;BMP280;49966;46.896;18.004;2023-07-02T10:06:04;99837.03;;;27.02
63588;BMP280;49966;46.896;18.004;2023-07-02T10:08:32;99832.66;;;27.51
63588;BMP280;49966;46.896;18.004;2023-07-02T10:11:09;99835.50;;;28.08
63588;BMP280;49966;46.896;18.004;2023-07-02T10:13:38;99833.34;;;28.49
63588;BMP280;49966;46.896;18.004;2023-07-02T10:16:07;99847.13;;;28.72
63588;BMP280;49966;46.896;18.004;2023-07-02T10:18:35;99843.22;;;28.41
63588;BMP280;49966;46.896;18.004;2023-07-02T10:21:20;99850.22;;;28.48
63588;BMP280;49966;46.896;18.004;2023-07-02T10:23:48;99856.03;;;28.61
63588;BMP280;49966;46.896;18.004;2023-07-02T10:26:18;99834.03;;;28.13
63588;BMP280;49966;46.896;18.004;2023-07-02T10:28:57;99841.56;;;27.92
63588;BMP280;49966;46.896;18.004;2023-07-02T10:31:26;99841.97;;;28.11
63588;BMP280;49966;46.896;18.004;2023-07-02T10:33:54;99841.69;;;28.09
63588;BMP280;49966;46.896;18.004;2023-07-02T10:36:23;99851.00;;;28.23
63588;BMP280;49966;46.896;18.004;2023-07-02T10:38:52;99844.28;;;28.18
63588;BMP280;49966;46.896;18.004;2023-07-02T10:41:26;99866.91;;;28.56
63588;BMP280;49966;46.896;18.004;2023-07-02T10:43:54;99856.94;;;28.21
63588;BMP280;49966;46.896;18.004;2023-07-02T10:46:23;99854.31;;;28.06
63588;BMP280;49966;46.896;18.004;2023-07-02T10:48:52;99842.13;;;28.02
63588;BMP280;49966;46.896;18.004;2023-07-02T10:51:20;99845.72;;;27.87
63588;BMP280;49966;46.896;18.004;2023-07-02T10:53:57;99836.22;;;27.77
63588;BMP280;49966;46.896;18.004;2023-07-02T10:56:28;99832.38;;;27.89
63588;BMP280;49966;46.896;18.004;2023-07-02T10:58:56;99828.22;;;27.74
63588;BMP280;49966;46.896;18.004;2023-07-02T11:01:26;99844.38;;;28.03
63588;BMP280;49966;46.896;18.004;2023-07-02T11:03:59;99833.91;;;27.96
63588;BMP280;49966;46.896;18.004;2023-07-02T11:06:28;99827.09;;;28.12
63588;BMP280;49966;46.896;18.004;2023-07-02T11:08:58;99844.91;;;28.33
63588;BMP280;49966;46.896;18.004;2023-07-02T11:11:28;99828.59;;;28.13
63588;BMP280;49966;46.896;18.004;2023-07-02T11:14:01;99832.16;;;28.25
63588;BMP280;49966;46.896;18.004;2023-07-02T11:16:29;99830.47;;;28.64
63588;BMP280;49966;46.896;18.004;2023-07-02T11:19:09;99811.31;;;28.22
63588;BMP280;49966;46.896;18.004;2023-07-02T11:21:37;99835.16;;;28.01
63588;BMP280;49966;46.896;18.004;2023-07-02T11:24:07;99834.59;;;28.48
63588;BMP280;49966;46.896;18.004;2023-07-02T11:26:38;99825.88;;;28.87
63588;BMP280;49966;46.896;18.004;2023-07-02T11:29:10;99813.19;;;28.41
63588;BMP280;49966;46.896;18.004;2023-07-02T11:31:38;99830.13;;;28.19
63588;BMP280;49966;46.896;18.004;2023-07-02T11:34:11;99833.34;;;28.49
63588;BMP280;49966;46.896;18.004;2023-07-02T11:36:40;99835.31;;;27.92
63588;BMP280;49966;46.896;18.004;2023-07-02T11:39:08;99825.97;;;27.72
63588;BMP280;49966;46.896;18.004;2023-07-02T11:41:38;99826.47;;;27.71
63588;BMP280;49966;46.896;18.004;2023-07-02T11:44:07;99830.28;;;28.05
63588;BMP280;49966;46.896;18.004;2023-07-02T11:46:35;99839.34;;;28.22
63588;BMP280;49966;46.896;18.004;2023-07-02T11:49:04;99821.47;;;28.53
63588;BMP280;49966;46.896;18.004;2023-07-02T11:51:35;99821.72;;;28.92
63588;BMP280;49966;46.896;18.004;2023-07-02T11:54:04;99820.31;;;28.65
63588;BMP280;49966;46.896;18.004;2023-07-02T11:56:33;99805.34;;;28.49
63588;BMP280;49966;46.896;18.004;2023-07-02T11:59:02;99830.09;;;28.14
63588;BMP280;49966;46.896;18.004;2023-07-02T12:01:31;99820.41;;;28.13
63588;BMP280;49966;46.896;18.004;2023-07-02T12:03:59;99828.59;;;28.13
63588;BMP280;49966;46.896;18.004;2023-07-02T12:06:27;99808.38;;;27.94
63588;BMP280;49966;46.896;18.004;2023-07-02T12:08:57;99814.81;;;28.22
63588;BMP280;49966;46.896;18.004;2023-07-02T12:11:25;99809.22;;;28.37
63588;BMP280;49966;46.896;18.004;2023-07-02T12:13:53;99813.56;;;28.23
63588;BMP280;49966;46.896;18.004;2023-07-02T12:16:23;99814.25;;;28.49
63588;BMP280;49966;46.896;18.004;2023-07-02T12:18:51;99831.88;;;28.48
63588;BMP280;49966;46.896;18.004;2023-07-02T12:21:20;99822.16;;;28.47
63588;BMP280;49966;46.896;18.004;2023-07-02T12:23:48;99811.06;;;28.57
63588;BMP280;49966;46.896;18.004;2023-07-02T12:26:16;99812.81;;;28.54
63588;BMP280;49966;46.896;18.004;2023-07-02T12:28:45;99813.22;;;28.84
63588;BMP280;49966;46.896;18.004;2023-07-02T12:31:14;99822.19;;;28.90
63588;BMP280;49966;46.896;18.004;2023-07-02T12:33:44;99814.34;;;29.15
63588;BMP280;49966;46.896;18.004;2023-07-02T12:36:12;99825.84;;;29.30
63588;BMP280;49966;46.896;18.004;2023-07-02T12:38:41;99830.31;;;29.27
63588;BMP280;49966;46.896;18.004;2023-07-02T12:41:09;99810.81;;;28.97
63588;BMP280;49966;46.896;18.004;2023-07-02T12:43:37;99822.00;;;28.62
63588;BMP280;49966;46.896;18.004;2023-07-02T12:46:06;99816.88;;;28.33
63588;BMP280;49966;46.896;18.004;2023-07-02T12:48:34;99814.25;;;28.49
63588;BMP280;49966;46.896;18.004;2023-07-02T12:51:04;99805.69;;;28.25
63588;BMP280;49966;46.896;18.004;2023-07-02T12:53:32;99808.63;;;28.59
63588;BMP280;49966;46.896;18.004;2023-07-02T12:56:01;99808.06;;;28.92
63588;BMP280;49966;46.896;18.004;2023-07-02T12:58:29;99805.41;;;29.08
63588;BMP280;49966;46.896;18.004;2023-07-02T13:00:58;99811.50;;;28.87
63588;BMP280;49966;46.896;18.004;2023-07-02T13:03:30;99799.34;;;28.88
63588;BMP280;49966;46.896;18.004;2023-07-02T13:06:01;99809.47;;;28.76
63588;BMP280;49966;46.896;18.004;2023-07-02T13:08:31;99802.72;;;28.66
63588;BMP280;49966;46.896;18.004;2023-07-02T13:11:01;99803.03;;;28.79
63588;BMP280;49966;46.896;18.004;2023-07-02T13:13:32;99792.13;;;28.85
63588;BMP280;49966;46.896;18.004;2023-07-02T13:16:00;99802.03;;;28.76
63588;BMP280;49966;46.896;18.004;2023-07-02T13:18:30;99821.16;;;28.82
63588;BMP280;49966;46.896;18.004;2023-07-02T13:20:59;99804.31;;;28.89
63588;BMP280;49966;46.896;18.004;2023-07-02T13:23:28;99818.25;;;28.97
63588;BMP280;49966;46.896;18.004;2023-07-02T13:25:57;99814.34;;;29.09
63588;BMP280;49966;46.896;18.004;2023-07-02T13:28:26;99820.38;;;29.41
63588;BMP280;49966;46.896;18.004;2023-07-02T13:30:56;99800.50;;;29.24
63588;BMP280;49966;46.896;18.004;2023-07-02T13:33:24;99804.13;;;28.98
63588;BMP280;49966;46.896;18.004;2023-07-02T13:35:57;99804.19;;;28.67
63588;BMP280;49966;46.896;18.004;2023-07-02T13:38:27;99802.13;;;28.51
63588;BMP280;49966;46.896;18.004;2023-07-02T13:41:00;99799.38;;;28.51
63588;BMP280;49966;46.896;18.004;2023-07-02T13:43:28;99799.88;;;28.49
63588;BMP280;49966;46.896;18.004;2023-07-02T13:45:57;99789.66;;;28.44
63588;BMP280;49966;46.896;18.004;2023-07-02T13:48:26;99783.69;;;28.40
63588;BMP280;49966;46.896;18.004;2023-07-02T13:50:55;99789.19;;;28.45
63588;BMP280;49966;46.896;18.004;2023-07-02T13:53:26;99778.16;;;28.29
63588;BMP280;49966;46.896;18.004;2023-07-02T13:55:55;99784.16;;;28.07
63588;BMP280;49966;46.896;18.004;2023-07-02T14:01:15;99786.00;;;28.15
63588;BMP280;49966;46.896;18.004;2023-07-02T14:03:44;99778.41;;;28.25
63588;BMP280;49966;46.896;18.004;2023-07-02T14:06:13;99782.69;;;28.37
63588;BMP280;49966;46.896;18.004;2023-07-02T14:08:42;99786.41;;;28.40
63588;BMP280;49966;46.896;18.004;2023-07-02T14:11:15;99780.09;;;28.23
63588;BMP280;49966;46.896;18.004;2023-07-02T14:13:43;99780.34;;;28.25
63588;BMP280;49966;46.896;18.004;2023-07-02T14:16:15;99793.94;;;28.19
63588;BMP280;49966;46.896;18.004;2023-07-02T14:18:44;99789.91;;;28.09
63588;BMP280;49966;46.896;18.004;2023-07-02T14:21:13;99788.59;;;28.04
63588;BMP280;49966;46.896;18.004;2023-07-02T14:23:43;99799.34;;;28.13
63588;BMP280;49966;46.896;18.004;2023-07-02T14:26:14;99795.22;;;28.24